createdAt,value
2023-03-10T00:00:43.300Z,0
2023-03-10T00:01:43.508Z,0
2023-03-10T00:02:43.590Z,0
2023-03-10T00:03:45.084Z,0
2023-03-10T00:04:44.825Z,0
2023-03-10T00:05:46.768Z,0
2023-03-10T00:06:47.489Z,0
2023-03-10T00:07:46.845Z,0
2023-03-10T00:08:48.388Z,0
2023-03-10T00:09:48.615Z,0
2023-03-10T00:10:48.552Z,0
2023-03-10T00:11:49.811Z,0
2023-03-10T00:12:50.835Z,0
2023-03-10T00:13:50.823Z,0
2023-03-10T00:14:51.779Z,0
2023-03-10T00:15:52.282Z,0
2023-03-10T00:16:53.518Z,0
2023-03-10T00:17:53.482Z,0
2023-03-10T00:18:53.718Z,0
2023-03-10T00:19:54.212Z,0
2023-03-10T00:20:54.134Z,0
2023-03-10T00:21:55.173Z,0
2023-03-10T00:22:55.531Z,0
2023-03-10T00:23:55.810Z,0
2023-03-10T00:24:55.438Z,0
2023-03-10T00:25:56.357Z,0
2023-03-10T00:26:57.294Z,0
2023-03-10T00:27:58.526Z,0
2023-03-10T00:28:58.187Z,0
2023-03-10T00:29:59.099Z,0
2023-03-10T00:31:00.028Z,0
2023-03-10T00:31:59.669Z,0
2023-03-10T00:33:01.417Z,0
2023-03-10T00:34:01.658Z,0
2023-03-10T00:35:02.600Z,0
2023-03-10T00:36:02.792Z,0
2023-03-10T00:37:03.100Z,0
2023-03-10T00:38:03.024Z,0
2023-03-10T00:39:04.290Z,0
2023-03-10T00:40:04.797Z,0
2023-03-10T00:41:04.764Z,0
2023-03-10T00:42:05.708Z,0
2023-03-10T00:43:05.746Z,0
2023-03-10T00:44:06.720Z,0
2023-03-10T00:45:06.646Z,0
2023-03-10T00:46:07.767Z,0
2023-03-10T00:47:07.980Z,0
2023-03-10T00:48:09.004Z,0
2023-03-10T00:49:09.646Z,0
2023-03-10T00:50:11.129Z,0
2023-03-10T00:51:10.775Z,0
2023-03-10T00:52:12.061Z,0
2023-03-10T00:53:12.486Z,0
2023-03-10T00:54:14.086Z,0
2023-03-10T00:55:13.729Z,0
2023-03-10T00:56:14.938Z,0
2023-03-10T00:57:15.161Z,0
2023-03-10T00:58:15.646Z,0
2023-03-10T00:59:15.568Z,0
2023-03-10T01:00:16.782Z,0
2023-03-10T01:01:17.244Z,0
2023-03-10T01:02:18.620Z,0
2023-03-10T01:03:18.969Z,0
2023-03-10T01:04:20.290Z,0
2023-03-10T01:05:20.507Z,0
2023-03-10T01:06:20.421Z,0
2023-03-10T01:07:21.668Z,0
2023-03-10T01:08:22.155Z,0
2023-03-10T01:09:22.708Z,0
2023-03-10T01:10:22.901Z,0
2023-03-10T01:11:22.814Z,0
2023-03-10T01:12:24.335Z,0
2023-03-10T01:13:24.083Z,0
2023-03-10T01:14:25.018Z,0
2023-03-10T01:15:25.976Z,0
2023-03-10T01:16:27.795Z,0
2023-03-10T01:17:27.764Z,0
2023-03-10T01:18:29.315Z,0
2023-03-10T01:19:29.516Z,0
2023-03-10T01:20:29.428Z,0
2023-03-10T01:21:30.346Z,0
2023-03-10T01:22:31.306Z,0
2023-03-10T01:23:31.058Z,0
2023-03-10T01:24:32.052Z,0
2023-03-10T01:25:31.675Z,0
2023-03-10T01:26:35.140Z,0
2023-03-10T01:27:33.346Z,0
2023-03-10T01:28:33.291Z,0
2023-03-10T01:29:34.484Z,0
2023-03-10T01:30:34.691Z,0
2023-03-10T01:31:34.666Z,0
2023-03-10T01:32:35.943Z,0
2023-03-10T01:33:36.271Z,0
2023-03-10T01:34:36.819Z,0
2023-03-10T01:35:37.174Z,0
2023-03-10T01:36:37.129Z,0
2023-03-10T01:37:38.416Z,0
2023-03-10T01:38:39.429Z,0
2023-03-10T01:39:39.402Z,0
2023-03-10T01:40:40.345Z,0
2023-03-10T01:41:41.286Z,0
2023-03-10T01:42:42.781Z,0
2023-03-10T01:43:42.822Z,0
2023-03-10T01:44:43.473Z,0
2023-03-10T01:45:44.386Z,0
2023-03-10T01:46:45.690Z,0
2023-03-10T01:47:46.265Z,0
2023-03-10T01:48:46.244Z,0
2023-03-10T01:49:46.180Z,0
2023-03-10T01:50:47.115Z,0
2023-03-10T01:51:48.350Z,0
2023-03-10T01:52:48.868Z,0
2023-03-10T01:53:48.581Z,0
2023-03-10T01:54:49.114Z,0
2023-03-10T01:55:49.018Z,0
2023-03-10T01:56:49.936Z,0
2023-03-10T01:57:50.563Z,0
2023-03-10T01:58:51.199Z,0
2023-03-10T01:59:52.689Z,0
2023-03-10T02:00:52.713Z,0
2023-03-10T02:01:54.291Z,0
2023-03-10T02:02:54.528Z,0
2023-03-10T02:03:55.909Z,0
2023-03-10T02:04:56.393Z,0
2023-03-10T02:05:56.605Z,0
2023-03-10T02:06:56.625Z,0
2023-03-10T02:07:58.218Z,0
2023-03-10T02:09:01.021Z,0
2023-03-10T02:09:59.275Z,0
2023-03-10T02:10:59.493Z,0
2023-03-10T02:11:59.430Z,0
2023-03-10T02:13:00.064Z,0
2023-03-10T02:14:00.812Z,0
2023-03-10T02:15:02.028Z,0
2023-03-10T02:16:02.366Z,0
2023-03-10T02:17:02.472Z,0
2023-03-10T02:18:03.726Z,0
2023-03-10T02:19:04.242Z,0
2023-03-10T02:20:04.078Z,0
2023-03-10T02:21:05.586Z,0
2023-03-10T02:22:05.783Z,0
2023-03-10T02:23:06.018Z,0
2023-03-10T02:24:16.698Z,0
2023-03-10T02:25:06.938Z,0
2023-03-10T02:26:07.426Z,0
2023-03-10T02:27:07.632Z,0
2023-03-10T02:28:07.843Z,0
2023-03-10T02:29:08.468Z,0
2023-03-10T02:30:15.964Z,0
2023-03-10T02:31:09.919Z,0
2023-03-10T02:32:10.832Z,0
2023-03-10T02:33:11.446Z,0
2023-03-10T02:34:11.513Z,0
2023-03-10T02:35:12.468Z,0
2023-03-10T02:36:12.797Z,0
2023-03-10T02:37:12.730Z,0
2023-03-10T02:38:14.284Z,0
2023-03-10T02:39:14.484Z,0
2023-03-10T02:40:14.771Z,0
2023-03-10T02:41:15.044Z,0
2023-03-10T02:42:15.965Z,0
2023-03-10T02:43:16.656Z,0
2023-03-10T02:44:17.461Z,0
2023-03-10T02:45:18.661Z,0
2023-03-10T02:46:19.394Z,0
2023-03-10T02:47:19.599Z,0
2023-03-10T02:48:20.553Z,0
2023-03-10T02:49:21.557Z,0
2023-03-10T02:50:22.088Z,0
2023-03-10T02:51:22.309Z,0
2023-03-10T02:52:22.218Z,0
2023-03-10T02:53:23.495Z,0
2023-03-10T02:54:23.850Z,0
2023-03-10T02:55:24.114Z,0
2023-03-10T02:56:24.623Z,0
2023-03-10T02:57:24.542Z,0
2023-03-10T02:58:25.190Z,0
2023-03-10T02:59:26.430Z,0
2023-03-10T03:00:26.111Z,0
2023-03-10T03:01:27.913Z,0
2023-03-10T03:02:27.893Z,0
2023-03-10T03:03:28.576Z,0
2023-03-10T03:04:29.334Z,0
2023-03-10T03:05:29.973Z,0
2023-03-10T03:06:31.202Z,0
2023-03-10T03:07:32.121Z,0
2023-03-10T03:08:32.749Z,0
2023-03-10T03:09:32.384Z,0
2023-03-10T03:10:33.355Z,0
2023-03-10T03:11:33.282Z,0
2023-03-10T03:12:33.919Z,0
2023-03-10T03:13:35.155Z,0
2023-03-10T03:14:36.061Z,0
2023-03-10T03:15:36.263Z,0
2023-03-10T03:16:36.702Z,0
2023-03-10T03:17:36.682Z,0
2023-03-10T03:18:37.332Z,0
2023-03-10T03:19:40.803Z,0
2023-03-10T03:20:38.787Z,0
2023-03-10T03:21:40.009Z,0
2023-03-10T03:22:40.499Z,0
2023-03-10T03:23:40.809Z,0
2023-03-10T03:24:41.166Z,0
2023-03-10T03:25:41.738Z,0
2023-03-10T03:26:41.378Z,0
2023-03-10T03:27:42.889Z,0
2023-03-10T03:28:42.840Z,0
2023-03-10T03:29:44.092Z,0
2023-03-10T03:30:43.423Z,0
2023-03-10T03:31:44.574Z,0
2023-03-10T03:32:44.769Z,0
2023-03-10T03:33:44.711Z,0
2023-03-10T03:34:45.487Z,0
2023-03-10T03:35:46.959Z,0
2023-03-10T03:36:46.955Z,0
2023-03-10T03:37:47.606Z,0
2023-03-10T03:38:49.142Z,0
2023-03-10T03:39:49.739Z,0
2023-03-10T03:40:49.863Z,0
2023-03-10T03:41:50.091Z,0
2023-03-10T03:42:50.424Z,0
2023-03-10T03:43:51.717Z,0
2023-03-10T03:44:52.320Z,0
2023-03-10T03:45:52.771Z,0
2023-03-10T03:46:52.552Z,0
2023-03-10T03:47:53.785Z,0
2023-03-10T03:48:54.297Z,0
2023-03-10T03:49:54.584Z,0
2023-03-10T03:50:54.947Z,0
2023-03-10T03:51:55.870Z,0
2023-03-10T03:52:56.992Z,0
2023-03-10T03:53:57.533Z,0
2023-03-10T03:54:57.556Z,0
2023-03-10T03:55:58.551Z,0
2023-03-10T03:56:58.752Z,0
2023-03-10T03:57:59.697Z,0
2023-03-10T03:59:00.685Z,0
2023-03-10T04:00:01.347Z,0
2023-03-10T04:01:03.092Z,0
2023-03-10T04:02:03.141Z,0
2023-03-10T04:03:03.739Z,0
2023-03-10T04:04:04.104Z,0
2023-03-10T04:05:04.436Z,0
2023-03-10T04:06:04.341Z,0
2023-03-10T04:07:04.985Z,0
2023-03-10T04:08:05.918Z,0
2023-03-10T04:09:07.442Z,0
2023-03-10T04:10:07.074Z,0
2023-03-10T04:11:08.060Z,0
2023-03-10T04:12:08.569Z,0
2023-03-10T04:13:08.225Z,0
2023-03-10T04:14:09.423Z,0
2023-03-10T04:15:08.838Z,0
2023-03-10T04:16:11.381Z,0
2023-03-10T04:17:12.323Z,0
2023-03-10T04:18:12.608Z,0
2023-03-10T04:19:12.554Z,0
2023-03-10T04:20:24.024Z,0
2023-03-10T04:21:14.529Z,0
2023-03-10T04:22:14.459Z,0
2023-03-10T04:23:15.079Z,0
2023-03-10T04:24:16.333Z,0
2023-03-10T04:25:16.726Z,0
2023-03-10T04:26:17.842Z,0
2023-03-10T04:27:17.759Z,0
2023-03-10T04:28:19.252Z,0
2023-03-10T04:29:19.750Z,0
2023-03-10T04:30:19.956Z,0
2023-03-10T04:31:21.085Z,0
2023-03-10T04:32:22.860Z,0
2023-03-10T04:33:22.704Z,0
2023-03-10T04:34:22.084Z,0
2023-03-10T04:35:23.364Z,0
2023-03-10T04:36:23.945Z,0
2023-03-10T04:37:23.600Z,0
2023-03-10T04:38:24.250Z,0
2023-03-10T04:39:25.457Z,0
2023-03-10T04:40:25.373Z,0
2023-03-10T04:41:26.408Z,0
2023-03-10T04:42:26.651Z,0
2023-03-10T04:43:27.280Z,0
2023-03-10T04:44:45.116Z,0
2023-03-10T04:45:32.585Z,0
2023-03-10T04:46:34.353Z,0
2023-03-10T04:47:34.586Z,0
2023-03-10T04:48:34.510Z,0
2023-03-10T04:49:35.707Z,0
2023-03-10T04:50:36.081Z,0
2023-03-10T04:51:36.443Z,0
2023-03-10T04:52:37.639Z,0
2023-03-10T04:53:38.581Z,0
2023-03-10T04:54:39.127Z,0
2023-03-10T04:55:39.441Z,0
2023-03-10T04:56:39.993Z,0
2023-03-10T04:57:40.201Z,0
2023-03-10T04:58:40.442Z,0
2023-03-10T04:59:40.631Z,0
2023-03-10T05:00:50.148Z,0
2023-03-10T05:01:41.909Z,0
2023-03-10T05:02:42.148Z,0
2023-03-10T05:03:42.359Z,0
2023-03-10T05:04:43.997Z,0
2023-03-10T05:05:48.396Z,0
2023-03-10T05:06:44.043Z,0
2023-03-10T05:07:44.991Z,0
2023-03-10T05:08:46.217Z,0
2023-03-10T05:09:46.805Z,0
2023-03-10T05:10:46.720Z,0
2023-03-10T05:11:47.777Z,0
2023-03-10T05:12:47.996Z,0
2023-03-10T05:13:48.951Z,0
2023-03-10T05:14:49.218Z,0
2023-03-10T05:15:50.355Z,0
2023-03-10T05:16:50.402Z,0
2023-03-10T05:17:55.390Z,0
2023-03-10T05:18:52.629Z,0
2023-03-10T05:19:52.568Z,0
2023-03-10T05:20:52.806Z,0
2023-03-10T05:21:52.863Z,0
2023-03-10T05:22:54.355Z,0
2023-03-10T05:23:54.639Z,0
2023-03-10T05:24:55.224Z,0
2023-03-10T05:25:54.777Z,0
2023-03-10T05:26:55.744Z,0
2023-03-10T05:27:56.950Z,0
2023-03-10T05:28:56.868Z,0
2023-03-10T05:29:58.083Z,0
2023-03-10T05:30:58.388Z,0
2023-03-10T05:31:59.284Z,0
2023-03-10T05:32:59.685Z,0
2023-03-10T05:33:59.903Z,0
2023-03-10T05:35:00.114Z,0
2023-03-10T05:36:01.198Z,0
2023-03-10T05:37:00.572Z,0
2023-03-10T05:38:02.501Z,0
2023-03-10T05:39:02.167Z,0
2023-03-10T05:40:03.447Z,0
2023-03-10T05:41:03.383Z,0
2023-03-10T05:42:04.382Z,0
2023-03-10T05:43:05.312Z,0
2023-03-10T05:44:06.246Z,0
2023-03-10T05:45:06.903Z,0
2023-03-10T05:46:07.648Z,0
2023-03-10T05:47:09.174Z,0
2023-03-10T05:48:09.091Z,0
2023-03-10T05:49:09.313Z,0
2023-03-10T05:50:09.537Z,0
2023-03-10T05:51:09.749Z,0
2023-03-10T05:52:09.675Z,0
2023-03-10T05:53:10.319Z,0
2023-03-10T05:54:10.966Z,0
2023-03-10T05:55:11.931Z,0
2023-03-10T05:56:12.662Z,0
2023-03-10T05:57:14.200Z,0
2023-03-10T05:58:14.173Z,0
2023-03-10T05:59:14.567Z,0
2023-03-10T06:00:15.830Z,0
2023-03-10T06:01:16.039Z,0
2023-03-10T06:02:16.262Z,0
2023-03-10T06:03:16.531Z,0
2023-03-10T06:04:17.404Z,0
2023-03-10T06:05:18.474Z,0
2023-03-10T06:06:17.678Z,0
2023-03-10T06:07:17.626Z,0
2023-03-10T06:08:18.582Z,0
2023-03-10T06:09:19.088Z,0
2023-03-10T06:10:19.470Z,0
2023-03-10T06:11:19.390Z,0
2023-03-10T06:12:20.354Z,0
2023-03-10T06:13:21.570Z,0
2023-03-10T06:14:22.570Z,0
2023-03-10T06:15:23.238Z,0
2023-03-10T06:16:24.333Z,0
2023-03-10T06:17:25.328Z,5.63
2023-03-10T06:18:24.974Z,5.63
2023-03-10T06:19:25.907Z,5.63
2023-03-10T06:20:26.113Z,5.63
2023-03-10T06:21:26.480Z,5.63
2023-03-10T06:22:26.119Z,5.63
2023-03-10T06:23:26.761Z,5.63
2023-03-10T06:24:27.973Z,5.63
2023-03-10T06:25:28.233Z,5.63
2023-03-10T06:26:28.572Z,11.25
2023-03-10T06:27:29.211Z,11.25
2023-03-10T06:28:29.400Z,11.25
2023-03-10T06:29:29.760Z,11.25
2023-03-10T06:30:30.681Z,11.25
2023-03-10T06:31:31.557Z,11.25
2023-03-10T06:32:31.776Z,11.25
2023-03-10T06:33:32.055Z,16.88
2023-03-10T06:34:33.272Z,16.88
2023-03-10T06:35:33.287Z,16.88
2023-03-10T06:36:33.545Z,16.88
2023-03-10T06:37:33.798Z,16.88
2023-03-10T06:38:34.714Z,16.88
2023-03-10T06:39:38.829Z,16.88
2023-03-10T06:40:35.348Z,16.88
2023-03-10T06:41:34.972Z,22.5
2023-03-10T06:42:36.520Z,22.5
2023-03-10T06:43:36.454Z,22.5
2023-03-10T06:44:37.393Z,22.5
2023-03-10T06:45:37.697Z,22.5
2023-03-10T06:46:38.019Z,28.13
2023-03-10T06:47:38.975Z,28.13
2023-03-10T06:48:39.625Z,28.13
2023-03-10T06:49:40.545Z,28.13
2023-03-10T06:50:42.829Z,28.13
2023-03-10T06:51:42.129Z,28.13
2023-03-10T06:52:42.083Z,28.13
2023-03-10T06:53:43.310Z,28.13
2023-03-10T06:54:43.528Z,28.13
2023-03-10T06:55:44.803Z,28.13
2023-03-10T06:56:44.525Z,33.75
2023-03-10T06:57:45.822Z,33.75
2023-03-10T06:58:45.744Z,33.75
2023-03-10T06:59:46.943Z,33.75
2023-03-10T07:00:47.354Z,39.38
2023-03-10T07:01:47.704Z,39.38
2023-03-10T07:02:48.071Z,39.38
2023-03-10T07:03:49.443Z,33.75
2023-03-10T07:04:49.842Z,33.75
2023-03-10T07:05:49.525Z,33.75
2023-03-10T07:06:49.665Z,33.75
2023-03-10T07:07:50.301Z,33.75
2023-03-10T07:08:51.572Z,33.75
2023-03-10T07:09:52.073Z,39.38
2023-03-10T07:10:52.311Z,39.38
2023-03-10T07:11:53.246Z,39.38
2023-03-10T07:12:54.567Z,39.38
2023-03-10T07:13:54.816Z,39.38
2023-03-10T07:14:55.766Z,39.38
2023-03-10T07:15:56.921Z,39.38
2023-03-10T07:16:56.723Z,39.38
2023-03-10T07:17:56.706Z,39.38
2023-03-10T07:18:57.625Z,39.38
2023-03-10T07:19:59.114Z,39.38
2023-03-10T07:20:59.272Z,39.38
2023-03-10T07:21:59.802Z,39.38
2023-03-10T07:23:00.164Z,39.38
2023-03-10T07:24:01.275Z,39.38
2023-03-10T07:25:00.885Z,39.38
2023-03-10T07:26:00.872Z,39.38
2023-03-10T07:27:01.221Z,39.38
2023-03-10T07:28:01.602Z,39.38
2023-03-10T07:29:01.812Z,45
2023-03-10T07:30:02.036Z,45
2023-03-10T07:31:02.660Z,45
2023-03-10T07:32:03.177Z,45
2023-03-10T07:33:03.985Z,45
2023-03-10T07:34:03.925Z,45
2023-03-10T07:35:05.436Z,45
2023-03-10T07:36:05.996Z,45
2023-03-10T07:37:06.063Z,45
2023-03-10T07:38:06.294Z,39.38
2023-03-10T07:39:06.243Z,39.38
2023-03-10T07:40:07.579Z,39.38
2023-03-10T07:41:10.385Z,39.38
2023-03-10T07:42:09.901Z,45
2023-03-10T07:43:10.175Z,45
2023-03-10T07:44:09.937Z,45
2023-03-10T07:45:11.449Z,50.63
2023-03-10T07:46:11.808Z,50.63
2023-03-10T07:47:12.225Z,50.63
2023-03-10T07:48:12.462Z,50.63
2023-03-10T07:49:13.437Z,50.63
2023-03-10T07:50:13.975Z,56.25
2023-03-10T07:51:13.921Z,56.25
2023-03-10T07:52:15.198Z,56.25
2023-03-10T07:53:16.408Z,61.88
2023-03-10T07:54:16.647Z,61.88
2023-03-10T07:55:16.862Z,67.5
2023-03-10T07:56:17.858Z,67.5
2023-03-10T07:57:18.509Z,67.5
2023-03-10T07:58:18.840Z,61.88
2023-03-10T07:59:19.039Z,61.88
2023-03-10T08:00:20.282Z,67.5
2023-03-10T08:01:20.508Z,61.88
2023-03-10T08:02:20.722Z,56.25
2023-03-10T08:03:20.782Z,56.25
2023-03-10T08:04:23.231Z,50.63
2023-03-10T08:05:23.224Z,50.63
2023-03-10T08:06:22.912Z,50.63
2023-03-10T08:07:24.598Z,50.63
2023-03-10T08:08:25.155Z,56.25
2023-03-10T08:09:25.401Z,56.25
2023-03-10T08:10:25.402Z,61.88
2023-03-10T08:11:27.138Z,67.5
2023-03-10T08:12:27.664Z,73.13
2023-03-10T08:13:28.317Z,78.75
2023-03-10T08:14:32.133Z,78.75
2023-03-10T08:15:29.447Z,84.38
2023-03-10T08:16:30.450Z,84.38
2023-03-10T08:17:30.250Z,90
2023-03-10T08:18:30.682Z,90
2023-03-10T08:19:30.893Z,90
2023-03-10T08:20:30.812Z,95.63
2023-03-10T08:21:31.815Z,106.88
2023-03-10T08:22:33.843Z,112.5
2023-03-10T08:23:34.108Z,112.5
2023-03-10T08:24:34.040Z,118.13
2023-03-10T08:25:34.712Z,123.75
2023-03-10T08:26:36.007Z,129.38
2023-03-10T08:27:40.117Z,129.38
2023-03-10T08:28:36.690Z,135
2023-03-10T08:29:37.751Z,146.25
2023-03-10T08:30:43.656Z,185.63
2023-03-10T08:31:38.225Z,264.38
2023-03-10T08:32:39.987Z,405
2023-03-10T08:33:39.900Z,360
2023-03-10T08:34:39.459Z,489.38
2023-03-10T08:35:39.424Z,551.25
2023-03-10T08:36:40.866Z,573.75
2023-03-10T08:37:43.016Z,489.38
2023-03-10T08:38:42.269Z,348.75
2023-03-10T08:39:44.562Z,275.63
2023-03-10T08:40:42.023Z,247.5
2023-03-10T08:41:42.735Z,225
2023-03-10T08:42:43.272Z,219.38
2023-03-10T08:43:43.582Z,286.88
2023-03-10T08:44:44.501Z,444.38
2023-03-10T08:45:44.153Z,275.63
2023-03-10T08:46:46.697Z,258.75
2023-03-10T08:47:48.992Z,230.63
2023-03-10T08:48:48.505Z,236.25
2023-03-10T08:49:51.794Z,286.88
2023-03-10T08:50:48.591Z,450
2023-03-10T08:51:49.536Z,500.63
2023-03-10T08:52:50.340Z,556.88
2023-03-10T08:53:50.558Z,663.75
2023-03-10T08:54:51.617Z,686.25
2023-03-10T08:55:51.861Z,691.88
2023-03-10T08:56:52.900Z,658.13
2023-03-10T08:57:53.649Z,579.38
2023-03-10T08:58:54.030Z,517.5
2023-03-10T08:59:54.282Z,534.38
2023-03-10T09:00:55.224Z,601.88
2023-03-10T09:01:56.243Z,601.88
2023-03-10T09:02:57.492Z,556.88
2023-03-10T09:03:58.012Z,658.13
2023-03-10T09:04:58.023Z,202.5
2023-03-10T09:05:58.296Z,793.13
2023-03-10T09:06:58.255Z,652.5
2023-03-10T09:07:59.008Z,191.25
2023-03-10T09:08:59.304Z,140.63
2023-03-10T09:09:59.517Z,157.5
2023-03-10T09:11:00.060Z,123.75
2023-03-10T09:12:00.677Z,123.75
2023-03-10T09:13:21.688Z,135
2023-03-10T09:14:02.482Z,135
2023-03-10T09:15:02.830Z,151.88
2023-03-10T09:16:02.910Z,438.75
2023-03-10T09:17:03.143Z,163.13
2023-03-10T09:18:04.263Z,157.5
2023-03-10T09:19:04.535Z,281.25
2023-03-10T09:20:04.793Z,545.63
2023-03-10T09:21:05.788Z,241.88
2023-03-10T09:22:06.106Z,810
2023-03-10T09:23:06.103Z,624.38
2023-03-10T09:24:07.617Z,208.13
2023-03-10T09:25:12.103Z,213.75
2023-03-10T09:26:08.681Z,241.88
2023-03-10T09:27:09.312Z,275.63
2023-03-10T09:28:09.478Z,298.13
2023-03-10T09:29:13.861Z,298.13
2023-03-10T09:30:12.919Z,270
2023-03-10T09:31:14.271Z,225
2023-03-10T09:32:14.597Z,208.13
2023-03-10T09:33:14.589Z,202.5
2023-03-10T09:34:14.697Z,191.25
2023-03-10T09:35:14.637Z,185.63
2023-03-10T09:36:24.642Z,180
2023-03-10T09:37:19.554Z,180
2023-03-10T09:38:17.235Z,180
2023-03-10T09:39:17.514Z,163.13
2023-03-10T09:40:18.945Z,157.5
2023-03-10T09:41:19.939Z,151.88
2023-03-10T09:42:37.215Z,151.88
2023-03-10T09:43:21.193Z,146.25
2023-03-10T09:44:21.481Z,140.63
2023-03-10T09:45:21.458Z,129.38
2023-03-10T09:46:23.383Z,123.75
2023-03-10T09:47:25.669Z,112.5
2023-03-10T09:48:25.992Z,101.25
2023-03-10T09:49:24.501Z,101.25
2023-03-10T09:50:24.743Z,90
2023-03-10T09:51:24.994Z,84.38
2023-03-10T09:52:28.473Z,67.5
2023-03-10T09:53:26.814Z,56.25
2023-03-10T09:54:26.742Z,45
2023-03-10T09:55:30.248Z,45
2023-03-10T09:56:29.946Z,45
2023-03-10T09:57:29.284Z,39.38
2023-03-10T09:58:30.550Z,39.38
2023-03-10T09:59:31.724Z,39.38
2023-03-10T10:00:30.951Z,33.75
2023-03-10T10:01:32.132Z,33.75
2023-03-10T10:02:32.483Z,33.75
2023-03-10T10:03:35.203Z,28.13
2023-03-10T10:04:33.831Z,28.13
2023-03-10T10:05:34.192Z,28.13
2023-03-10T10:06:39.948Z,22.5
2023-03-10T10:07:36.488Z,28.13
2023-03-10T10:08:39.974Z,28.13
2023-03-10T10:09:37.218Z,33.75
2023-03-10T10:10:37.735Z,39.38
2023-03-10T10:11:38.011Z,45
2023-03-10T10:12:38.782Z,39.38
2023-03-10T10:13:41.125Z,33.75
2023-03-10T10:15:02.886Z,28.13
2023-03-10T10:15:41.119Z,28.13
2023-03-10T10:16:50.479Z,22.5
2023-03-10T10:17:52.836Z,22.5
2023-03-10T10:18:44.063Z,16.88
2023-03-10T10:19:47.986Z,16.88
2023-03-10T10:20:45.228Z,16.88
2023-03-10T10:21:58.623Z,16.88
2023-03-10T10:22:45.850Z,16.88
2023-03-10T10:23:46.369Z,16.88
2023-03-10T10:24:46.676Z,22.5
2023-03-10T10:25:50.275Z,22.5
2023-03-10T10:26:48.709Z,22.5
2023-03-10T10:27:49.763Z,22.5
2023-03-10T10:28:50.883Z,22.5
2023-03-10T10:29:51.249Z,22.5
2023-03-10T10:30:51.755Z,22.5
2023-03-10T10:31:52.672Z,22.5
2023-03-10T10:32:56.417Z,22.5
2023-03-10T10:33:54.881Z,22.5
2023-03-10T10:34:54.136Z,28.13
2023-03-10T10:35:54.045Z,33.75
2023-03-10T10:36:54.261Z,33.75
2023-03-10T10:37:58.042Z,39.38
2023-03-10T10:38:55.799Z,45
2023-03-10T10:39:56.722Z,50.63
2023-03-10T10:40:58.224Z,61.88
2023-03-10T10:41:58.173Z,67.5
2023-03-10T10:42:58.457Z,73.13
2023-03-10T10:43:58.693Z,78.75
2023-03-10T10:45:00.185Z,78.75
2023-03-10T10:46:01.323Z,78.75
2023-03-10T10:47:00.343Z,84.38
2023-03-10T10:48:01.367Z,84.38
2023-03-10T10:49:01.756Z,84.38
2023-03-10T10:50:02.009Z,84.38
2023-03-10T10:51:01.951Z,78.75
2023-03-10T10:52:06.662Z,73.13
2023-03-10T10:53:04.169Z,73.13
2023-03-10T10:54:03.902Z,67.5
2023-03-10T10:55:04.407Z,67.5
2023-03-10T10:56:05.914Z,61.88
2023-03-10T10:57:06.165Z,61.88
2023-03-10T10:58:07.508Z,61.88
2023-03-10T10:59:07.144Z,61.88
2023-03-10T11:00:08.764Z,61.88
2023-03-10T11:01:09.199Z,56.25
2023-03-10T11:02:09.767Z,56.25
2023-03-10T11:03:10.187Z,56.25
2023-03-10T11:04:11.390Z,61.88
2023-03-10T11:05:12.101Z,61.88
2023-03-10T11:06:13.477Z,61.88
2023-03-10T11:07:12.421Z,61.88
2023-03-10T11:08:12.068Z,67.5
2023-03-10T11:09:14.228Z,73.13
2023-03-10T11:10:14.764Z,78.75
2023-03-10T11:11:13.842Z,90
2023-03-10T11:12:15.092Z,112.5
2023-03-10T11:13:15.960Z,135
2023-03-10T11:14:15.314Z,185.63
2023-03-10T11:15:16.531Z,253.13
2023-03-10T11:16:17.898Z,556.88
2023-03-10T11:17:17.569Z,303.75
2023-03-10T11:18:18.561Z,292.5
2023-03-10T11:19:18.954Z,281.25
2023-03-10T11:20:20.370Z,275.63
2023-03-10T11:21:20.614Z,630
2023-03-10T11:22:21.257Z,601.88
2023-03-10T11:23:22.539Z,230.63
2023-03-10T11:24:23.991Z,185.63
2023-03-10T11:25:23.533Z,180
2023-03-10T11:26:24.803Z,275.63
2023-03-10T11:27:25.040Z,551.25
2023-03-10T11:28:25.602Z,933.75
2023-03-10T11:29:26.508Z,753.75
2023-03-10T11:30:27.158Z,826.88
2023-03-10T11:31:27.646Z,326.25
2023-03-10T11:32:27.617Z,258.75
2023-03-10T11:33:28.872Z,253.13
2023-03-10T11:34:29.100Z,225
2023-03-10T11:35:30.380Z,225
2023-03-10T11:36:30.564Z,202.5
2023-03-10T11:37:31.073Z,185.63
2023-03-10T11:38:30.713Z,151.88
2023-03-10T11:39:31.518Z,140.63
2023-03-10T11:40:32.024Z,140.63
2023-03-10T11:41:31.386Z,804.38
2023-03-10T11:42:33.743Z,326.25
2023-03-10T11:43:33.790Z,247.5
2023-03-10T11:44:34.744Z,506.25
2023-03-10T11:45:35.312Z,495
2023-03-10T11:46:36.370Z,534.38
2023-03-10T11:47:36.614Z,455.63
2023-03-10T11:48:37.120Z,421.88
2023-03-10T11:49:36.896Z,596.25
2023-03-10T11:50:38.680Z,691.88
2023-03-10T11:51:38.338Z,495
2023-03-10T11:52:39.383Z,303.75
2023-03-10T11:53:40.986Z,275.63
2023-03-10T11:54:43.535Z,247.5
2023-03-10T11:55:41.525Z,219.38
2023-03-10T11:56:42.043Z,202.5
2023-03-10T11:57:42.042Z,185.63
2023-03-10T11:58:43.608Z,180
2023-03-10T11:59:43.941Z,174.38
2023-03-10T12:00:44.475Z,168.75
2023-03-10T12:01:44.482Z,163.13
2023-03-10T12:02:44.742Z,157.5
2023-03-10T12:03:45.441Z,157.5
2023-03-10T12:04:45.394Z,151.88
2023-03-10T12:05:46.962Z,146.25
2023-03-10T12:06:47.554Z,140.63
2023-03-10T12:07:47.785Z,135
2023-03-10T12:08:47.725Z,135
2023-03-10T12:09:49.165Z,146.25
2023-03-10T12:10:49.090Z,157.5
2023-03-10T12:11:50.054Z,151.88
2023-03-10T12:12:51.564Z,196.88
2023-03-10T12:13:51.559Z,151.88
2023-03-10T12:14:52.515Z,191.25
2023-03-10T12:15:52.881Z,180
2023-03-10T12:16:53.057Z,241.88
2023-03-10T12:17:53.015Z,416.25
2023-03-10T12:18:54.238Z,489.38
2023-03-10T12:19:54.972Z,540
2023-03-10T12:20:55.521Z,540
2023-03-10T12:21:55.445Z,545.63
2023-03-10T12:22:56.362Z,630
2023-03-10T12:23:57.690Z,421.88
2023-03-10T12:24:57.428Z,528.75
2023-03-10T12:25:58.676Z,298.13
2023-03-10T12:26:59.188Z,275.63
2023-03-10T12:27:59.417Z,213.75
2023-03-10T12:29:00.424Z,185.63
2023-03-10T12:30:00.221Z,157.5
2023-03-10T12:31:01.947Z,129.38
2023-03-10T12:32:02.723Z,123.75
2023-03-10T12:33:03.187Z,129.38
2023-03-10T12:34:03.142Z,135
2023-03-10T12:35:02.791Z,135
2023-03-10T12:36:04.761Z,146.25
2023-03-10T12:37:05.146Z,157.5
2023-03-10T12:38:05.058Z,191.25
2023-03-10T12:39:06.615Z,208.13
2023-03-10T12:40:07.106Z,270
2023-03-10T12:41:08.398Z,275.63
2023-03-10T12:42:08.124Z,562.5
2023-03-10T12:43:09.358Z,596.25
2023-03-10T12:44:09.639Z,450
2023-03-10T12:45:09.864Z,461.25
2023-03-10T12:46:10.376Z,590.63
2023-03-10T12:47:11.538Z,579.38
2023-03-10T12:48:11.057Z,568.13
2023-03-10T12:49:10.439Z,590.63
2023-03-10T12:50:11.253Z,450
2023-03-10T12:51:11.903Z,573.75
2023-03-10T12:52:13.161Z,579.38
2023-03-10T12:53:13.299Z,506.25
2023-03-10T12:54:13.814Z,286.88
2023-03-10T12:55:14.081Z,365.63
2023-03-10T12:56:13.466Z,534.38
2023-03-10T12:57:15.844Z,495
2023-03-10T12:58:16.146Z,219.38
2023-03-10T12:59:16.713Z,202.5
2023-03-10T13:00:16.511Z,247.5
2023-03-10T13:01:17.943Z,196.88
2023-03-10T13:02:18.566Z,191.25
2023-03-10T13:03:18.928Z,230.63
2023-03-10T13:04:19.607Z,202.5
2023-03-10T13:05:19.637Z,264.38
2023-03-10T13:06:20.231Z,320.63
2023-03-10T13:07:20.724Z,331.88
2023-03-10T13:08:20.963Z,230.63
2023-03-10T13:09:22.134Z,275.63
2023-03-10T13:10:22.210Z,247.5
2023-03-10T13:11:23.436Z,292.5
2023-03-10T13:12:23.987Z,292.5
2023-03-10T13:13:24.263Z,286.88
2023-03-10T13:14:24.263Z,326.25
2023-03-10T13:15:25.099Z,331.88
2023-03-10T13:16:25.345Z,309.38
2023-03-10T13:17:25.652Z,275.63
2023-03-10T13:18:25.298Z,298.13
2023-03-10T13:19:26.383Z,303.75
2023-03-10T13:20:26.724Z,236.25
2023-03-10T13:21:29.260Z,298.13
2023-03-10T13:22:27.788Z,253.13
2023-03-10T13:23:27.454Z,270
2023-03-10T13:24:28.712Z,196.88
2023-03-10T13:25:28.703Z,180
2023-03-10T13:26:29.703Z,163.13
2023-03-10T13:27:31.202Z,151.88
2023-03-10T13:28:31.119Z,151.88
2023-03-10T13:29:32.671Z,213.75
2023-03-10T13:30:33.494Z,146.25
2023-03-10T13:31:33.984Z,135
2023-03-10T13:32:34.944Z,151.88
2023-03-10T13:33:52.625Z,151.88
2023-03-10T13:34:35.006Z,140.63
2023-03-10T13:35:36.355Z,151.88
2023-03-10T13:36:36.135Z,146.25
2023-03-10T13:37:37.630Z,135
2023-03-10T13:38:38.199Z,123.75
2023-03-10T13:39:41.193Z,112.5
2023-03-10T13:40:39.233Z,106.88
2023-03-10T13:41:39.924Z,95.63
2023-03-10T13:42:57.655Z,84.38
2023-03-10T13:43:41.691Z,78.75
2023-03-10T13:44:42.267Z,73.13
2023-03-10T13:45:42.892Z,73.13
2023-03-10T13:46:43.256Z,78.75
2023-03-10T13:47:43.948Z,84.38
2023-03-10T13:48:45.503Z,106.88
2023-03-10T13:49:45.732Z,140.63